Time;durP1;ratioP1;P1;durP2;ratioP2;P2;SDS_P1;SDS_P2;PMS_P1;PMS_P2;Temp;Humidity;BMP_temperature;BMP_pressure;BME280_temperature;BME280_humidity;BME280_pressure;Samples;Min_cycle;Max_cycle;Signal;HPM_P1;HPM_P2
2022/08/27 00:01:01;;;;;;;3.80;2.10;;;;;;;20.86;41.54;101216.75;5069306;28;20072;-89
2022/08/27 00:03:29;;;;;;;4.55;1.95;;;;;;;20.84;41.74;101210.53;5069818;28;20044;-88
2022/08/27 00:05:57;;;;;;;8.38;3.80;;;;;;;20.84;41.90;101218.03;5070322;28;20051;-89
2022/08/27 00:08:26;;;;;;;6.43;4.82;;;;;;;20.82;41.75;101207.09;5070651;28;20033;-89
2022/08/27 00:10:56;;;;;;;7.63;5.22;;;;;;;20.83;41.95;101207.94;5078306;28;20058;-89
2022/08/27 00:13:24;;;;;;;7.32;5.68;;;;;;;20.80;41.98;101208.31;5080819;28;20495;-89
2022/08/27 00:15:52;;;;;;;8.57;6.65;;;;;;;20.79;42.05;101207.47;5074954;28;20032;-88
2022/08/27 00:18:25;;;;;;;9.15;6.47;;;;;;;20.82;42.26;101209.00;5071544;28;20124;-89
2022/08/27 00:20:54;;;;;;;8.23;5.82;;;;;;;20.77;41.80;101201.25;5074020;28;20048;-90
2022/08/27 00:23:22;;;;;;;6.85;4.93;;;;;;;20.76;41.90;101205.94;5074106;28;20029;-87
2022/08/27 00:25:51;;;;;;;8.27;4.63;;;;;;;20.75;41.96;101208.91;5076882;28;20043;-88
2022/08/27 00:28:20;;;;;;;8.57;4.53;;;;;;;20.75;41.90;101197.78;5070901;28;20041;-89
2022/08/27 00:30:49;;;;;;;6.75;4.43;;;;;;;20.72;42.25;101207.38;5071490;28;20735;-89
2022/08/27 00:33:17;;;;;;;8.90;5.40;;;;;;;20.71;42.19;101207.56;5073870;28;20043;-89
2022/08/27 00:35:47;;;;;;;10.05;7.07;;;;;;;20.70;42.00;101205.84;5080822;28;20140;-89
2022/08/27 00:38:16;;;;;;;10.27;8.30;;;;;;;20.67;42.33;101207.09;5061125;28;20041;-89
2022/08/27 00:40:44;;;;;;;12.05;8.82;;;;;;;20.66;42.40;101204.50;5067835;28;20048;-89
2022/08/27 00:43:13;;;;;;;11.88;8.77;;;;;;;20.64;42.33;101209.38;5074660;28;22502;-89
2022/08/27 00:45:45;;;;;;;10.93;7.90;;;;;;;20.66;43.06;101210.94;5074003;28;20041;-88
2022/08/27 00:48:16;;;;;;;11.45;7.95;;;;;;;20.61;42.46;101207.84;5074351;28;20045;-89
2022/08/27 00:50:50;;;;;;;10.65;7.45;;;;;;;20.61;42.76;101207.00;5077427;28;20988;-89
2022/08/27 00:53:22;;;;;;;11.35;8.18;;;;;;;20.57;42.58;101206.50;5076266;28;20086;-89
2022/08/27 00:55:55;;;;;;;9.93;7.72;;;;;;;20.58;42.95;101205.44;5071192;28;20055;-89
2022/08/27 00:58:30;;;;;;;10.40;8.13;;;;;;;20.57;43.06;101203.72;5072891;28;20040;-90
2022/08/27 01:01:01;;;;;;;10.98;8.38;;;;;;;20.56;42.65;101203.88;5068041;28;20053;-89
2022/08/27 01:04:01;;;;;;;11.90;8.93;;;;;;;20.52;42.89;101200.66;5072236;28;20094;-88
2022/08/27 01:06:34;;;;;;;12.55;9.00;;;;;;;20.50;43.14;101205.53;5075495;28;20037;-89
2022/08/27 01:09:08;;;;;;;13.50;9.68;;;;;;;20.50;43.13;101207.44;5066221;28;20040;-88
2022/08/27 01:11:37;;;;;;;12.43;8.15;;;;;;;20.47;42.79;101197.56;5070714;28;20422;-89
2022/08/27 01:14:06;;;;;;;14.50;9.48;;;;;;;20.47;42.89;101193.91;5070532;28;20045;-89
2022/08/27 01:16:39;;;;;;;13.25;10.07;;;;;;;20.47;42.90;101199.47;5056579;28;20041;-88
2022/08/27 01:19:14;;;;;;;13.00;8.70;;;;;;;20.45;42.81;101194.09;5071474;28;20052;-88
2022/08/27 01:21:48;;;;;;;11.57;8.52;;;;;;;20.43;42.79;101189.81;5079757;28;20479;-88
2022/08/27 01:24:30;;;;;;;11.75;8.38;;;;;;;20.40;43.05;101194.69;5083518;28;20041;-88
2022/08/27 01:26:59;;;;;;;;;;;;;;;20.09;42.84;101187.56;5078857;28;20102;-88
2022/08/27 01:29:29;;;;;;;9.60;7.22;;;;;;;20.30;42.29;101185.75;5079495;28;19920;-87
2022/08/27 01:32:05;;;;;;;10.85;8.18;;;;;;;20.34;42.77;101184.34;5075296;28;20053;-88
2022/08/27 01:34:33;;;;;;;11.52;8.77;;;;;;;20.29;42.27;101180.38;5086606;28;20048;-89
2022/08/27 01:37:03;;;;;;;11.00;8.65;;;;;;;20.29;42.32;101181.25;5081346;28;20056;-88
2022/08/27 01:39:33;;;;;;;10.27;7.32;;;;;;;20.29;42.53;101184.03;5072673;28;20041;-89
2022/08/27 01:42:07;;;;;;;8.73;6.30;;;;;;;20.27;42.64;101175.03;5071672;28;20048;-89
2022/08/27 01:44:44;;;;;;;8.45;6.28;;;;;;;20.26;42.81;101178.00;5072354;28;20090;-88
2022/08/27 01:47:12;;;;;;;6.18;4.95;;;;;;;20.22;42.50;101176.66;5073026;28;20067;-89
2022/08/27 01:49:41;;;;;;;9.30;5.30;;;;;;;20.21;42.24;101180.47;5072259;28;20042;-89
2022/08/27 01:52:09;;;;;;;7.57;4.47;;;;;;;20.19;42.28;101179.81;5062157;28;20060;-88
2022/08/27 01:54:39;;;;;;;7.07;4.88;;;;;;;20.21;42.17;101183.25;5073642;28;20086;-88
2022/08/27 01:57:08;;;;;;;8.85;4.93;;;;;;;20.15;42.30;101176.53;5074188;28;20048;-89
2022/08/27 01:59:36;;;;;;;6.28;4.28;;;;;;;20.16;42.44;101171.84;5070085;28;20032;-89
2022/08/27 02:02:07;;;;;;;7.13;4.30;;;;;;;20.15;42.53;101178.47;5077087;28;20383;-89
2022/08/27 02:04:36;;;;;;;6.68;3.55;;;;;;;20.14;42.12;101177.59;5081596;28;20040;-88
2022/08/27 02:07:06;;;;;;;7.55;3.70;;;;;;;20.14;42.33;101180.38;5074089;28;20044;-90
2022/08/27 02:09:35;;;;;;;5.35;2.75;;;;;;;20.13;42.01;101175.88;5071593;28;20059;-89
2022/08/27 02:12:05;;;;;;;5.20;2.78;;;;;;;20.15;41.93;101176.53;5070672;28;20048;-90
2022/08/27 02:14:34;;;;;;;6.03;2.80;;;;;;;20.12;42.21;101176.09;5076636;28;20045;-88
2022/08/27 02:17:02;;;;;;;4.55;2.72;;;;;;;20.12;42.18;101176.91;5073032;28;20048;-90
2022/08/27 02:19:30;;;;;;;4.60;2.40;;;;;;;20.12;42.01;101178.84;5060667;28;20553;-89
2022/08/27 02:21:59;;;;;;;4.13;2.28;;;;;;;20.11;41.84;101175.22;5067977;28;20630;-89
2022/08/27 02:24:29;;;;;;;4.82;1.80;;;;;;;20.10;41.94;101172.63;5063076;28;20071;-89
2022/08/27 02:26:59;;;;;;;6.07;2.40;;;;;;;20.10;41.61;101172.63;5073422;28;20036;-89
2022/08/27 02:29:29;;;;;;;4.45;2.22;;;;;;;20.10;41.48;101167.06;5061338;28;20048;-88
2022/08/27 02:31:59;;;;;;;3.38;2.17;;;;;;;20.06;41.36;101166.56;5069847;28;20041;-88
2022/08/27 02:34:27;;;;;;;5.15;2.35;;;;;;;20.07;41.72;101170.22;5078131;28;20052;-87
2022/08/27 02:36:55;;;;;;;5.57;2.70;;;;;;;20.07;41.33;101170.22;5073377;28;20492;-89
2022/08/27 02:39:30;;;;;;;6.15;3.10;;;;;;;20.05;41.25;101167.63;5075686;28;20048;-87
2022/08/27 02:41:59;;;;;;;6.10;3.28;;;;;;;20.03;41.48;101164.19;5070842;28;20048;-89
2022/08/27 02:44:30;;;;;;;6.10;3.60;;;;;;;20.04;41.32;101165.06;5067701;28;20075;-89
2022/08/27 02:46:59;;;;;;;6.77;3.70;;;;;;;20.01;41.25;101166.28;5072000;28;20044;-89
2022/08/27 02:49:27;;;;;;;5.95;3.45;;;;;;;20.02;41.14;101165.22;5062610;28;20139;-89
2022/08/27 02:51:56;;;;;;;6.05;3.60;;;;;;;20.02;41.08;101168.00;5071173;28;20049;-89
2022/08/27 02:54:24;;;;;;;5.78;3.47;;;;;;;20.02;41.17;101165.22;5078795;28;20036;-87
2022/08/27 02:56:54;;;;;;;6.63;4.22;;;;;;;20.01;41.21;101167.16;5070506;28;20036;-89
2022/08/27 02:59:23;;;;;;;6.22;3.97;;;;;;;20.00;41.37;101175.66;5068484;28;20044;-89
2022/08/27 03:01:53;;;;;;;7.30;4.15;;;;;;;20.01;41.25;101163.50;5063042;28;20048;-89
2022/08/27 03:04:22;;;;;;;6.78;4.30;;;;;;;19.99;41.33;101162.81;5066388;28;20086;-90
2022/08/27 03:06:50;;;;;;;6.65;3.90;;;;;;;19.97;41.11;101167.69;5077895;28;20078;-88
2022/08/27 03:09:20;;;;;;;6.65;3.80;;;;;;;19.96;41.21;101158.50;5071415;28;20124;-89
2022/08/27 03:11:48;;;;;;;6.55;4.03;;;;;;;19.96;41.16;101158.50;5067170;28;20040;-89
2022/08/27 03:14:18;;;;;;;7.70;4.25;;;;;;;19.99;41.20;101160.03;5082225;28;20066;-89
2022/08/27 03:16:46;;;;;;;7.68;4.13;;;;;;;19.95;41.61;101156.75;5074228;28;20040;-88
2022/08/27 03:19:16;;;;;;;7.13;4.22;;;;;;;19.98;40.99;101156.41;5071083;28;20686;-89
2022/08/27 03:21:51;;;;;;;7.47;3.83;;;;;;;19.93;41.38;101161.66;5070117;28;20544;-89
2022/08/27 03:24:21;;;;;;;6.05;3.58;;;;;;;19.91;41.12;101163.75;5069110;28;20040;-89
2022/08/27 03:26:50;;;;;;;6.60;3.45;;;;;;;19.92;41.31;101162.72;5073359;28;20071;-89
2022/08/27 03:29:21;;;;;;;5.85;3.75;;;;;;;19.90;41.40;101170.34;5080183;28;20041;-88
2022/08/27 03:31:49;;;;;;;6.70;3.90;;;;;;;19.89;41.62;101171.38;5064236;28;20045;-89
2022/08/27 03:34:20;;;;;;;5.68;3.25;;;;;;;19.90;41.26;101164.78;5073799;28;20037;-89
2022/08/27 03:36:50;;;;;;;6.05;4.18;;;;;;;19.86;41.54;101168.13;5074128;28;20043;-89
2022/08/27 03:39:18;;;;;;;7.88;4.20;;;;;;;19.84;41.59;101159.97;5062029;28;20090;-89
2022/08/27 03:41:46;;;;;;;6.75;4.45;;;;;;;19.84;41.50;101168.31;5073313;28;20043;-90
2022/08/27 03:44:23;;;;;;;6.85;4.72;;;;;;;19.82;41.67;101164.84;5069833;28;20132;-89
2022/08/27 03:46:52;;;;;;;8.15;4.45;;;;;;;19.82;41.73;101167.63;5070593;28;20079;-88
2022/08/27 03:49:22;;;;;;;7.22;4.05;;;;;;;19.83;42.01;101166.59;5074156;28;20052;-89
2022/08/27 03:51:52;;;;;;;6.63;4.15;;;;;;;19.80;41.96;101158.63;5077447;28;20036;-88
2022/08/27 03:54:23;;;;;;;6.15;3.53;;;;;;;19.80;41.94;101158.63;5078148;28;20415;-89
2022/08/27 03:56:52;;;;;;;6.45;3.80;;;;;;;19.77;41.52;101161.78;5089092;28;20052;-89
2022/08/27 03:59:20;;;;;;;7.32;3.60;;;;;;;19.75;41.79;101158.34;5075689;28;20036;-89
2022/08/27 04:01:48;;;;;;;6.60;3.10;;;;;;;19.75;41.61;101163.03;5075164;28;20094;-89
2022/08/27 04:04:17;;;;;;;6.35;3.15;;;;;;;19.73;41.63;101167.88;5074525;28;20094;-88
2022/08/27 04:06:46;;;;;;;6.22;3.30;;;;;;;19.73;41.98;101165.13;5070278;28;20048;-88
2022/08/27 04:09:14;;;;;;;6.57;3.17;;;;;;;19.68;41.94;101165.69;5074713;28;20044;-88
2022/08/27 04:11:43;;;;;;;5.82;3.40;;;;;;;19.67;41.71;101172.28;5088362;28;20475;-88
2022/08/27 04:14:12;;;;;;;5.40;3.33;;;;;;;19.65;42.25;101164.13;5074232;28;20041;-88
2022/08/27 04:16:54;;;;;;;5.88;3.50;;;;;;;19.63;42.39;101168.13;5075726;28;20079;-88
2022/08/27 04:19:24;;;;;;;5.75;3.45;;;;;;;19.62;41.89;101172.00;5075286;28;20044;-88
2022/08/27 04:22:00;;;;;;;6.93;3.40;;;;;;;19.60;42.64;101174.94;5081703;28;20040;-88
2022/08/27 04:24:30;;;;;;;5.45;3.22;;;;;;;19.58;42.12;101168.72;5090537;28;20044;-88
2022/08/27 04:27:00;;;;;;;6.28;3.60;;;;;;;19.55;42.22;101171.84;5087681;28;20098;-88
2022/08/27 04:29:28;;;;;;;6.38;3.15;;;;;;;19.53;42.17;101175.88;5073469;28;20484;-88
2022/08/27 04:31:57;;;;;;;6.45;3.00;;;;;;;19.50;42.52;101166.00;5081314;28;20480;-87
2022/08/27 04:34:26;;;;;;;6.63;2.90;;;;;;;19.46;42.25;101161.84;5074395;28;20067;-87
2022/08/27 04:36:56;;;;;;;6.07;2.45;;;;;;;19.44;42.48;101166.75;5079297;28;20047;-89
2022/08/27 04:39:28;;;;;;;4.90;2.63;;;;;;;19.43;42.66;101183.59;5088396;28;20040;-88
2022/08/27 04:41:58;;;;;;;7.03;2.67;;;;;;;19.37;41.99;101189.88;5082646;28;20044;-87
2022/08/27 04:44:30;;;;;;;5.80;2.17;;;;;;;19.33;42.67;101192.16;5083635;28;20048;-86
2022/08/27 04:47:00;;;;;;;4.63;2.13;;;;;;;19.27;42.35;101185.44;5079759;28;20051;-87
2022/08/27 04:49:30;;;;;;;4.90;2.30;;;;;;;19.26;42.76;101193.94;5080394;28;20047;-88
2022/08/27 04:52:01;;;;;;;6.93;2.90;;;;;;;19.18;42.45;101191.19;5075120;28;20095;-89
2022/08/27 04:54:31;;;;;;;5.30;2.22;;;;;;;19.19;42.67;101196.56;5063076;28;20063;-89
2022/08/27 04:57:01;;;;;;;3.72;1.70;;;;;;;19.15;42.77;101197.06;5077118;28;20093;-88
2022/08/27 04:59:30;;;;;;;6.63;2.10;;;;;;;19.10;42.58;101188.44;5079459;28;20064;-88
2022/08/27 05:01:58;;;;;;;5.47;1.80;;;;;;;19.05;42.94;101193.69;5073868;28;20494;-89
2022/08/27 05:04:39;;;;;;;4.00;2.00;;;;;;;19.03;43.56;101198.56;5082427;28;20525;-88
2022/08/27 05:07:09;;;;;;;5.82;2.03;;;;;;;18.99;43.42;101200.81;5062851;28;20049;-88
2022/08/27 05:09:39;;;;;;;4.88;1.58;;;;;;;18.98;43.12;101206.53;5068347;28;20067;-87
2022/08/27 05:12:09;;;;;;;4.20;1.60;;;;;;;18.96;43.29;101203.97;5073151;28;20098;-88
2022/08/27 05:14:37;;;;;;;5.35;1.70;;;;;;;18.94;43.47;101207.97;5074162;28;20495;-87
2022/08/27 05:17:05;;;;;;;2.78;1.60;;;;;;;18.93;43.56;101214.53;5073497;28;20040;-87
2022/08/27 05:19:33;;;;;;;4.20;1.70;;;;;;;18.92;43.72;101213.69;5091040;28;20128;-87
2022/08/27 05:22:02;;;;;;;4.45;1.70;;;;;;;18.92;43.11;101213.69;5081032;28;20048;-86
2022/08/27 05:24:31;;;;;;;4.93;2.00;;;;;;;18.90;43.24;101211.09;5073638;28;20102;-87
2022/08/27 05:27:19;;;;;;;4.10;1.70;;;;;;;18.89;43.66;101209.34;5066952;28;20056;-87
2022/08/27 05:29:47;;;;;;;3.45;1.63;;;;;;;18.87;43.62;101217.00;5072224;28;20044;-88
2022/08/27 05:32:15;;;;;;;4.50;1.73;;;;;;;18.87;43.20;101211.47;5074830;28;20105;-86
2022/08/27 05:34:43;;;;;;;4.88;1.85;;;;;;;18.86;43.26;101219.97;5072883;28;20060;-87
2022/08/27 05:37:12;;;;;;;4.13;1.65;;;;;;;18.85;43.64;101219.09;5073472;28;20090;-87
2022/08/27 05:39:40;;;;;;;4.72;1.63;;;;;;;18.83;43.45;101215.63;5063336;28;20059;-88
2022/08/27 05:42:08;;;;;;;4.20;1.75;;;;;;;18.82;43.48;101226.88;5073584;28;20086;-88
2022/08/27 05:44:38;;;;;;;4.25;1.70;;;;;;;18.82;43.70;101218.56;5072421;28;20041;-87
2022/08/27 05:47:08;;;;;;;4.63;1.98;;;;;;;18.78;43.65;101218.09;5079385;28;20040;-88
2022/08/27 05:49:37;;;;;;;3.80;2.05;;;;;;;18.79;43.51;101221.72;5072177;28;20049;-87
2022/08/27 05:52:09;;;;;;;4.05;1.90;;;;;;;18.81;43.95;101225.16;5080373;28;20079;-87
2022/08/27 05:54:38;;;;;;;4.53;2.03;;;;;;;18.76;43.91;101227.63;5078401;28;20090;-87
2022/08/27 05:57:07;;;;;;;4.78;1.73;;;;;;;18.77;44.24;101221.91;5072942;28;20291;-87
2022/08/27 06:02:35;;;;;;;3.88;1.98;;;;;;;18.76;44.37;101222.94;5064282;28;20060;-86
2022/08/27 06:05:04;;;;;;;3.90;1.67;;;;;;;18.74;44.20;101221.38;5071686;28;20139;-86
2022/08/27 06:07:33;;;;;;;4.78;1.75;;;;;;;18.76;44.60;101224.84;5072307;28;20139;-87
2022/08/27 06:10:02;;;;;;;4.60;1.85;;;;;;;18.77;44.57;101219.13;5077169;28;20052;-87
2022/08/27 06:12:30;;;;;;;3.28;1.70;;;;;;;18.77;44.77;101218.25;5089758;28;20063;-89
2022/08/27 06:14:58;;;;;;;4.35;1.77;;;;;;;18.78;44.32;101223.63;5072235;28;20075;-89
2022/08/27 06:17:29;;;;;;;4.65;2.08;;;;;;;18.80;44.34;101224.28;5073080;28;20087;-88
2022/08/27 06:19:57;;;;;;;6.07;2.05;;;;;;;18.78;44.46;101220.00;5072121;28;20044;-89
2022/08/27 06:22:31;;;;;;;4.63;1.80;;;;;;;18.78;44.72;101225.53;5085674;28;20071;-89
2022/08/27 06:25:49;;;;;;;3.80;1.90;;;;;;;18.76;44.96;101230.38;5079824;28;20119;-89
2022/08/27 06:28:21;;;;;;;5.40;1.73;;;;;;;18.76;44.79;101222.94;5063296;28;20098;-90
2022/08/27 06:30:49;;;;;;;4.57;1.92;;;;;;;18.76;44.11;101225.72;5077197;28;20036;-89
2022/08/27 06:33:20;;;;;;;5.07;2.30;;;;;;;18.79;44.21;101225.38;5067081;28;20060;-89
2022/08/27 06:35:48;;;;;;;3.42;2.00;;;;;;;18.78;44.48;101229.19;5056188;28;20045;-88
2022/08/27 06:38:16;;;;;;;3.63;2.00;;;;;;;18.79;44.05;101230.03;5074087;28;20033;-87
2022/08/27 06:40:44;;;;;;;4.60;2.10;;;;;;;18.80;44.44;101232.59;5073534;28;20105;-88
2022/08/27 06:43:12;;;;;;;4.10;2.00;;;;;;;18.80;44.39;101231.78;5072834;28;20094;-89
2022/08/27 06:45:40;;;;;;;4.75;1.90;;;;;;;18.81;44.26;101233.47;5071618;28;20037;-86
2022/08/27 06:48:09;;;;;;;4.28;2.03;;;;;;;18.82;44.02;101230.53;5070486;28;20067;-85
2022/08/27 06:50:41;;;;;;;3.92;1.77;;;;;;;18.85;44.42;101241.28;5058655;28;20087;-86
2022/08/27 06:53:09;;;;;;;4.28;2.15;;;;;;;18.82;44.46;101235.22;5070061;28;20040;-84
2022/08/27 06:55:41;;;;;;;4.15;2.08;;;;;;;18.86;44.54;101234.69;5065836;28;20112;-83
2022/08/27 06:58:10;;;;;;;6.05;2.00;;;;;;;18.83;44.26;101243.34;5073858;28;20203;-86
2022/08/27 07:00:39;;;;;;;3.80;1.90;;;;;;;18.86;44.34;101229.13;5073729;28;20044;-84
2022/08/27 07:03:07;;;;;;;4.78;1.98;;;;;;;18.87;43.98;101227.22;5070715;28;20048;-84
2022/08/27 07:05:37;;;;;;;4.45;1.90;;;;;;;18.89;43.99;101223.22;5067200;28;20064;-84
2022/08/27 07:08:08;;;;;;;5.65;2.15;;;;;;;18.92;43.85;101223.91;5073399;28;20050;-85
2022/08/27 07:10:37;;;;;;;4.07;2.00;;;;;;;18.92;43.70;101233.09;5070924;28;20049;-86
2022/08/27 07:13:05;;;;;;;3.53;2.03;;;;;;;18.93;44.16;101226.50;5069511;28;20037;-87
2022/08/27 07:15:33;;;;;;;4.63;2.10;;;;;;;18.95;43.97;101223.56;5065766;28;20037;-88
2022/08/27 07:18:04;;;;;;;3.72;2.00;;;;;;;18.97;43.99;101229.75;5070831;28;20521;-69
2022/08/27 07:20:32;;;;;;;5.65;2.15;;;;;;;18.99;43.87;101223.00;5067393;28;20564;-69
2022/08/27 07:23:00;;;;;;;5.03;2.28;;;;;;;19.00;43.85;101224.72;5061983;28;20094;-70
2022/08/27 07:25:31;;;;;;;6.00;2.88;;;;;;;19.02;43.55;101222.66;5060260;28;20504;-69
2022/08/27 07:27:59;;;;;;;4.63;2.60;;;;;;;19.01;43.50;101220.06;5070555;28;20501;-70
2022/08/27 07:30:27;;;;;;;5.68;2.38;;;;;;;19.03;43.69;101226.28;5074828;28;20436;-70
2022/08/27 07:32:55;;;;;;;4.95;2.42;;;;;;;19.01;43.21;101225.59;5068296;28;20125;-69
2022/08/27 07:35:23;;;;;;;5.85;3.08;;;;;;;19.01;43.54;101228.38;5067191;28;20072;-70
2022/08/27 07:37:51;;;;;;;5.30;3.10;;;;;;;19.00;43.14;101235.81;5069916;28;20462;-71
2022/08/27 07:40:20;;;;;;;6.40;2.90;;;;;;;19.00;43.25;101232.19;5068694;28;20582;-70
2022/08/27 07:46:02;;;;;;;5.35;3.35;;;;;;;18.99;43.53;101227.69;5058669;28;20041;-70
2022/08/27 07:48:32;;;;;;;5.05;3.17;;;;;;;18.98;43.40;101237.91;5064665;28;20136;-72
2022/08/27 07:51:04;;;;;;;5.63;3.38;;;;;;;18.99;43.52;101236.00;5066845;28;20079;-71
2022/08/27 07:53:33;;;;;;;5.63;3.35;;;;;;;19.02;43.32;101242.06;5066995;28;20075;-68
2022/08/27 07:56:05;;;;;;;5.50;3.20;;;;;;;19.05;43.36;101238.91;5068097;28;20041;-67
2022/08/27 07:58:35;;;;;;;5.47;3.00;;;;;;;19.05;43.15;101238.91;5060713;28;20072;-68
2022/08/27 08:01:03;;;;;;;5.50;2.72;;;;;;;19.06;43.25;101243.41;5064897;28;20075;-68
2022/08/27 08:03:32;;;;;;;5.88;2.40;;;;;;;19.10;43.35;101246.72;5059613;28;20048;-68
2022/08/27 08:06:04;;;;;;;5.50;2.78;;;;;;;19.13;43.46;101243.59;5065318;28;20045;-68
2022/08/27 08:08:33;;;;;;;;;;;;;;;18.87;43.92;101243.88;5062911;28;20033;-69
2022/08/27 08:11:02;;;;;;;5.07;2.55;;;;;;;19.16;43.72;101240.44;5064831;28;19921;-69
2022/08/27 08:13:31;;;;;;;6.03;2.75;;;;;;;19.25;43.26;101245.78;5065627;28;20101;-69
2022/08/27 08:16:00;;;;;;;5.93;2.90;;;;;;;19.32;43.47;101247.84;5062037;28;20036;-69
2022/08/27 08:18:28;;;;;;;5.68;2.70;;;;;;;19.35;42.91;101239.16;5068868;28;20139;-70
2022/08/27 08:21:00;;;;;;;4.55;2.47;;;;;;;19.43;42.73;101244.66;5065801;28;20041;-70
2022/08/27 08:23:29;;;;;;;5.22;2.75;;;;;;;19.44;42.85;101247.25;5067761;28;20056;-69
2022/08/27 08:25:57;;;;;;;4.82;2.55;;;;;;;19.51;43.12;101247.38;5061421;28;20042;-70
2022/08/27 08:28:26;;;;;;;6.18;2.50;;;;;;;19.55;42.52;101255.13;5067694;28;20544;-70
2022/08/27 08:30:55;;;;;;;4.95;2.50;;;;;;;19.60;42.55;101255.47;5065617;28;20611;-71
2022/08/27 08:33:27;;;;;;;5.03;2.58;;;;;;;19.64;42.50;101262.38;5062732;28;20675;-71
2022/08/27 08:35:55;;;;;;;4.78;2.72;;;;;;;19.68;42.31;101262.00;5069788;28;20064;-70
2022/08/27 08:38:24;;;;;;;5.13;3.15;;;;;;;19.69;42.38;101266.53;5070457;28;20110;-70
2022/08/27 08:40:54;;;;;;;4.03;2.40;;;;;;;19.70;42.37;101266.34;5070347;28;20040;-70
2022/08/27 08:43:30;;;;;;;4.20;2.20;;;;;;;19.77;41.88;101269.25;5070417;28;20101;-70
2022/08/27 08:46:08;;;;;;;6.40;3.05;;;;;;;19.78;41.99;101262.63;5067299;28;20064;-71
2022/08/27 08:48:44;;;;;;;5.38;3.30;;;;;;;19.81;41.79;101274.22;5061162;28;20510;-70
2022/08/27 08:51:19;;;;;;;4.55;2.70;;;;;;;19.85;41.71;101270.03;5072018;28;20066;-70
2022/08/27 08:53:51;;;;;;;4.82;2.60;;;;;;;19.87;41.63;101269.88;5059970;28;20095;-70
2022/08/27 08:56:25;;;;;;;5.40;2.90;;;;;;;19.87;41.67;101269.88;5069859;28;20039;-69
2022/08/27 08:58:59;;;;;;;6.18;3.75;;;;;;;19.90;41.68;101278.66;5065703;28;20046;-69
2022/08/27 09:01:28;;;;;;;5.13;3.20;;;;;;;19.89;41.70;101276.06;5071711;28;20043;-69
2022/08/27 09:04:00;;;;;;;5.57;3.10;;;;;;;19.92;41.51;101282.16;5070312;28;20321;-69
2022/08/27 09:06:38;;;;;;;4.55;3.00;;;;;;;19.92;41.72;101278.53;5069491;28;20426;-69
2022/08/27 09:09:25;;;;;;;5.88;3.20;;;;;;;19.91;41.36;101283.22;5073434;28;20044;-69
2022/08/27 09:11:59;;;;;;;6.78;3.35;;;;;;;19.90;41.51;101278.66;5061843;28;20028;-74
2022/08/27 09:14:35;;;;;;;4.78;3.05;;;;;;;19.92;41.02;101284.09;5069000;28;20044;-69
2022/08/27 09:17:06;;;;;;;5.65;3.00;;;;;;;19.87;41.33;101281.81;5069033;28;20131;-69
2022/08/27 09:19:41;;;;;;;5.75;2.92;;;;;;;19.88;41.09;101283.53;5071480;28;20048;-69
2022/08/27 09:22:19;;;;;;;4.28;2.30;;;;;;;19.89;41.10;101282.50;5067754;28;20056;-69
2022/08/27 09:24:55;;;;;;;4.45;2.35;;;;;;;19.89;41.21;101278.84;5069433;28;20066;-84
2022/08/27 09:27:24;;;;;;;3.97;2.40;;;;;;;19.89;41.48;101285.28;5073774;28;20048;-83
2022/08/27 09:29:54;;;;;;;4.38;2.35;;;;;;;19.92;41.55;101278.53;5074484;28;20090;-83
2022/08/27 09:32:25;;;;;;;4.88;2.55;;;;;;;19.95;41.34;101280.94;5079851;28;20033;-83
2022/08/27 09:34:57;;;;;;;4.65;2.70;;;;;;;19.98;40.79;101295.31;5081358;28;20044;-83
2022/08/27 09:37:27;;;;;;;;;;;;;;;19.69;41.40;101280.41;5074714;28;20044;-83
2022/08/27 09:40:06;;;;;;;3.42;2.05;;;;;;;19.97;41.06;101278.81;5074798;28;20023;-83
2022/08/27 09:42:52;;;;;;;5.10;2.22;;;;;;;20.02;41.14;101280.00;5068662;28;20047;-83
2022/08/27 09:45:23;;;;;;;5.28;2.30;;;;;;;20.08;41.06;101278.38;5072420;28;20048;-83
2022/08/27 09:47:53;;;;;;;5.25;2.35;;;;;;;20.10;40.86;101284.63;5062782;28;20056;-83
2022/08/27 09:50:31;;;;;;;6.65;2.90;;;;;;;20.14;41.14;101288.75;5074693;28;20055;-83
2022/08/27 09:53:00;;;;;;;5.32;2.55;;;;;;;20.15;41.13;101284.94;5070742;28;20063;-84
2022/08/27 09:55:36;;;;;;;4.72;2.50;;;;;;;20.20;40.59;101279.66;5070345;28;20471;-87
2022/08/27 09:58:06;;;;;;;3.50;2.30;;;;;;;20.21;40.71;101281.38;5072148;28;20072;-86
2022/08/27 10:00:37;;;;;;;5.38;2.80;;;;;;;20.27;40.81;101288.13;5067943;28;20045;-84
2022/08/27 10:03:06;;;;;;;4.00;2.65;;;;;;;20.29;40.25;101288.78;5071719;28;20032;-86
2022/08/27 10:05:42;;;;;;;6.18;3.03;;;;;;;20.34;40.11;101287.19;5069126;28;20661;-85
2022/08/27 10:08:22;;;;;;;4.05;2.60;;;;;;;20.37;40.08;101285.94;5070590;28;20120;-86
2022/08/27 10:10:55;;;;;;;4.25;2.78;;;;;;;20.40;39.91;101288.34;5072118;28;20041;-86
2022/08/27 10:13:28;;;;;;;5.93;3.20;;;;;;;20.43;39.89;101287.13;5070705;28;20120;-85
2022/08/27 10:16:09;;;;;;;4.45;3.13;;;;;;;20.46;39.68;101281.16;5073443;28;20044;-85
2022/08/27 10:18:46;;;;;;;5.43;2.72;;;;;;;20.46;39.87;101282.03;5072487;28;20036;-86
2022/08/27 10:21:23;;;;;;;4.03;2.72;;;;;;;20.49;39.84;101284.44;5080381;28;20415;-85
2022/08/27 10:24:02;;;;;;;4.43;2.97;;;;;;;20.51;39.43;101285.13;5062258;28;20063;-85
2022/08/27 10:26:38;;;;;;;4.63;2.85;;;;;;;20.52;39.53;101286.84;5073725;28;20043;-84
2022/08/27 10:29:13;;;;;;;5.78;2.80;;;;;;;20.54;39.46;101294.97;5075928;28;20052;-84
2022/08/27 10:31:52;;;;;;;4.03;2.33;;;;;;;20.57;39.11;101289.03;5064544;28;20041;-83
2022/08/27 10:34:34;;;;;;;4.80;2.33;;;;;;;20.59;38.90;101282.28;5059308;28;20052;-84
2022/08/27 10:37:19;;;;;;;4.45;2.50;;;;;;;20.60;39.20;101284.00;5049981;28;20048;-83
2022/08/27 10:40:03;;;;;;;5.18;2.35;;;;;;;20.64;39.00;101282.56;5076875;28;20105;-84
2022/08/27 10:42:37;;;;;;;3.17;2.00;;;;;;;20.65;39.07;101277.88;5063846;28;20044;-83
2022/08/27 10:45:15;;;;;;;3.75;2.30;;;;;;;20.69;38.91;101276.44;5071035;28;20471;-83
2022/08/27 10:48:10;;;;;;;3.30;1.85;;;;;;;20.69;38.96;101279.22;5069841;28;20056;-84
2022/08/27 10:50:45;;;;;;;3.58;2.03;;;;;;;20.74;38.76;101280.38;5069481;28;20123;-84
2022/08/27 10:53:26;;;;;;;3.72;2.10;;;;;;;20.78;38.63;101281.69;5072812;28;20044;-84
2022/08/27 10:56:06;;;;;;;2.85;2.10;;;;;;;20.81;38.60;101286.03;5076980;28;20055;-83
2022/08/27 10:58:46;;;;;;;2.72;2.00;;;;;;;20.86;39.16;101277.13;5071995;28;20037;-85
2022/08/27 11:01:23;;;;;;;2.95;2.13;;;;;;;20.89;38.75;101277.59;5072202;28;20131;-86
2022/08/27 11:03:55;;;;;;;3.63;2.50;;;;;;;20.95;38.69;101278.72;5070453;28;20114;-87
2022/08/27 11:06:36;;;;;;;3.92;2.10;;;;;;;20.98;38.56;101283.91;5069564;28;20394;-84
2022/08/27 11:09:21;;;;;;;2.95;2.33;;;;;;;21.01;37.79;101287.19;5069853;28;20044;-85
2022/08/27 11:11:54;;;;;;;3.83;2.20;;;;;;;21.04;38.10;101285.91;5070643;28;20051;-86
2022/08/27 11:14:50;;;;;;;3.80;2.00;;;;;;;21.06;37.97;101284.69;5071451;28;20032;-85
2022/08/27 11:17:30;;;;;;;4.70;2.05;;;;;;;21.08;37.42;101288.16;5071403;28;20043;-85
2022/08/27 11:20:05;;;;;;;2.97;1.90;;;;;;;21.07;37.59;101286.41;5058716;28;20044;-87
2022/08/27 11:22:38;;;;;;;2.78;1.98;;;;;;;21.08;37.59;101284.50;5070831;28;20048;-87
2022/08/27 11:25:24;;;;;;;3.92;2.10;;;;;;;21.09;37.82;101283.44;5065318;28;20056;-87
2022/08/27 11:27:54;;;;;;;3.33;1.80;;;;;;;21.09;38.06;101283.44;5065953;28;20400;-85
2022/08/27 11:30:31;;;;;;;4.10;2.40;;;;;;;21.13;37.83;101281.97;5074980;28;20131;-85
2022/08/27 11:33:12;;;;;;;4.70;2.55;;;;;;;21.17;37.74;101282.47;5071137;28;20037;-86
2022/08/27 11:35:57;;;;;;;5.18;2.42;;;;;;;21.17;37.80;101272.22;5054349;28;20060;-85
2022/08/27 11:38:37;;;;;;;4.05;2.42;;;;;;;21.24;37.77;101275.06;5062134;28;20040;-85
2022/08/27 11:41:22;;;;;;;4.03;2.38;;;;;;;21.29;37.73;101269.81;5066202;28;20102;-84
2022/08/27 11:43:54;;;;;;;4.07;2.35;;;;;;;21.32;37.83;101275.84;5070141;28;20048;-84
2022/08/27 11:46:25;;;;;;;3.70;2.22;;;;;;;21.36;37.93;101270.75;5070077;28;20086;-85
2022/08/27 11:48:59;;;;;;;3.33;2.08;;;;;;;21.42;37.34;101269.97;5067943;28;20045;-82
2022/08/27 11:51:33;;;;;;;3.70;2.00;;;;;;;21.47;37.24;101270.25;5068209;28;20241;-84